createdAt,value
2022-08-18T00:01:37.159Z,21.77
2022-08-18T00:04:24.249Z,21.79
2022-08-18T00:07:07.148Z,21.82
2022-08-18T00:09:41.072Z,21.89
2022-08-18T00:12:17.136Z,21.81
2022-08-18T00:14:49.910Z,21.83
2022-08-18T00:17:25.134Z,21.82
2022-08-18T00:19:57.844Z,21.80
2022-08-18T00:22:30.672Z,21.82
2022-08-18T00:25:03.650Z,21.75
2022-08-18T00:27:38.004Z,21.75
2022-08-18T00:30:14.278Z,21.80
2022-08-18T00:32:53.003Z,21.82
2022-08-18T00:35:28.974Z,21.79
2022-08-18T00:38:04.829Z,21.87
2022-08-18T00:40:41.056Z,21.74
2022-08-18T00:43:19.779Z,21.88
2022-08-18T00:45:52.752Z,21.82
2022-08-18T00:48:26.734Z,21.77
2022-08-18T00:51:04.349Z,21.78
2022-08-18T00:53:43.983Z,21.81
2022-08-18T00:56:22.341Z,21.82
2022-08-18T00:59:00.873Z,21.87
2022-08-18T01:01:34.760Z,21.79
2022-08-18T01:04:13.648Z,21.84
2022-08-18T01:06:52.386Z,21.88
2022-08-18T01:09:25.762Z,21.92
2022-08-18T01:11:58.645Z,21.84
2022-08-18T01:14:31.741Z,21.82
2022-08-18T01:17:21.704Z,21.74
2022-08-18T01:20:13.937Z,21.82
2022-08-18T01:23:05.592Z,21.78
2022-08-18T01:25:56.690Z,21.76
2022-08-18T01:28:30.455Z,21.74
2022-08-18T01:31:04.199Z,21.83
2022-08-18T01:33:39.053Z,21.77
2022-08-18T01:36:16.740Z,21.77
2022-08-18T01:38:53.999Z,21.77
2022-08-18T01:41:30.671Z,21.85
2022-08-18T01:44:05.178Z,21.74
2022-08-18T01:46:41.256Z,21.70
2022-08-18T01:49:14.472Z,21.66
2022-08-18T01:51:48.523Z,21.70
2022-08-18T01:54:23.028Z,21.71
2022-08-18T01:56:55.862Z,21.69
2022-08-18T01:59:28.569Z,21.68
2022-08-18T02:02:01.813Z,21.72
2022-08-18T02:04:36.968Z,21.65
2022-08-18T02:07:12.527Z,21.60
2022-08-18T02:09:46.800Z,21.59
2022-08-18T02:12:23.981Z,21.59
2022-08-18T02:14:57.139Z,21.52
2022-08-18T02:17:30.124Z,21.63
2022-08-18T02:20:02.731Z,21.62
2022-08-18T02:22:37.269Z,21.57
2022-08-18T02:25:12.203Z,21.60
2022-08-18T02:27:45.909Z,21.53
2022-08-18T02:30:19.670Z,21.57
2022-08-18T02:32:52.519Z,21.55
2022-08-18T02:35:25.592Z,21.56
2022-08-18T02:38:00.070Z,21.46
2022-08-18T02:40:35.562Z,21.51
2022-08-18T02:43:11.002Z,21.39
2022-08-18T02:45:43.776Z,21.44
2022-08-18T02:48:16.631Z,21.39
2022-08-18T02:50:49.456Z,21.27
2022-08-18T02:53:23.062Z,21.38
2022-08-18T02:56:05.027Z,21.34
2022-08-18T02:58:37.731Z,21.24
2022-08-18T03:01:10.942Z,21.25
2022-08-18T03:03:43.758Z,21.23
2022-08-18T03:06:16.662Z,21.30
2022-08-18T03:08:50.416Z,21.21
2022-08-18T03:11:27.950Z,21.24
2022-08-18T03:14:01.274Z,21.21
2022-08-18T03:16:36.227Z,21.23
2022-08-18T03:19:09.021Z,21.25
2022-08-18T03:21:41.735Z,21.25
2022-08-18T03:24:22.867Z,21.23
2022-08-18T03:26:58.395Z,21.21
2022-08-18T03:29:32.948Z,21.31
2022-08-18T03:32:08.653Z,21.20
2022-08-18T03:34:43.174Z,21.18
2022-08-18T03:37:17.370Z,21.14
2022-08-18T03:39:51.830Z,21.15
2022-08-18T03:42:26.056Z,21.27
2022-08-18T03:44:58.980Z,21.22
2022-08-18T03:47:31.948Z,21.27
2022-08-18T03:50:05.552Z,21.18
2022-08-18T03:52:41.778Z,21.17
2022-08-18T03:55:14.856Z,21.22
2022-08-18T03:57:48.919Z,21.22
2022-08-18T04:00:21.920Z,21.23
2022-08-18T04:02:54.444Z,21.22
2022-08-18T04:05:28.664Z,21.27
2022-08-18T04:08:02.588Z,21.29
2022-08-18T04:10:36.251Z,21.32
2022-08-18T04:13:10.447Z,21.31
2022-08-18T04:15:43.266Z,21.29
2022-08-18T04:18:15.966Z,21.27
2022-08-18T04:20:59.914Z,21.34
2022-08-18T04:23:39.416Z,21.36
2022-08-18T04:26:19.249Z,21.33
2022-08-18T04:28:53.572Z,21.30
2022-08-18T04:31:26.473Z,21.33
2022-08-18T04:34:00.940Z,21.31
2022-08-18T04:36:37.208Z,21.28
2022-08-18T04:39:12.130Z,21.29
2022-08-18T04:41:45.026Z,21.29
2022-08-18T04:44:19.232Z,21.36
2022-08-18T04:46:54.530Z,21.41
2022-08-18T04:49:27.563Z,21.39
2022-08-18T04:52:38.362Z,21.36
2022-08-18T04:55:11.862Z,21.38
2022-08-18T04:57:45.403Z,21.42
2022-08-18T05:00:19.604Z,21.45
2022-08-18T05:02:54.590Z,21.42
2022-08-18T05:05:27.574Z,21.44
2022-08-18T05:08:00.087Z,21.42
2022-08-18T05:10:33.079Z,21.38
2022-08-18T05:13:06.538Z,21.36
2022-08-18T05:16:07.133Z,21.38
2022-08-18T05:18:38.598Z,21.32
2022-08-18T05:21:14.308Z,21.35
2022-08-18T05:23:49.087Z,21.35
2022-08-18T05:26:25.825Z,21.36
2022-08-18T05:29:17.614Z,21.32
2022-08-18T05:31:54.400Z,21.35
2022-08-18T05:34:27.209Z,21.33
2022-08-18T05:37:11.655Z,21.29
2022-08-18T05:39:56.551Z,21.23
2022-08-18T05:42:36.832Z,21.14
2022-08-18T05:45:12.795Z,21.21
2022-08-18T05:47:48.258Z,21.21
2022-08-18T05:50:22.471Z,21.19
2022-08-18T05:52:57.936Z,21.26
2022-08-18T05:55:52.568Z,21.23
2022-08-18T05:58:33.506Z,21.28
2022-08-18T06:01:15.883Z,21.24
2022-08-18T06:03:54.378Z,21.14
2022-08-18T06:06:29.592Z,21.15
2022-08-18T06:09:11.988Z,21.14
2022-08-18T06:11:44.728Z,21.18
2022-08-18T06:14:17.574Z,21.13
2022-08-18T06:17:03.349Z,21.18
2022-08-18T06:19:50.527Z,21.17
2022-08-18T06:22:33.919Z,21.18
2022-08-18T06:25:15.703Z,21.26
2022-08-18T06:27:56.597Z,21.21
2022-08-18T06:30:48.208Z,21.18
2022-08-18T06:33:38.511Z,21.15
2022-08-18T06:36:21.736Z,21.21
2022-08-18T06:39:04.515Z,21.30
2022-08-18T06:41:42.708Z,21.31
2022-08-18T06:44:24.461Z,21.44
2022-08-18T06:47:04.518Z,21.47
2022-08-18T06:49:46.675Z,21.51
2022-08-18T06:52:26.884Z,21.55
2022-08-18T06:55:02.261Z,21.57
2022-08-18T06:57:38.305Z,21.62
2022-08-18T07:00:24.011Z,21.64
2022-08-18T07:03:01.844Z,21.73
2022-08-18T07:05:37.257Z,21.70
2022-08-18T07:08:18.778Z,21.77
2022-08-18T07:10:53.551Z,21.79
2022-08-18T07:13:30.241Z,21.84
2022-08-18T07:16:30.133Z,21.82
2022-08-18T07:19:12.469Z,21.84
2022-08-18T07:21:45.669Z,21.85
2022-08-18T07:24:26.391Z,21.89
2022-08-18T07:27:03.585Z,21.88
2022-08-18T07:29:39.103Z,21.91
2022-08-18T07:32:15.962Z,21.96
2022-08-18T07:34:58.211Z,21.98
2022-08-18T07:37:36.236Z,21.93
2022-08-18T07:40:20.632Z,22.03
2022-08-18T07:43:01.807Z,22.01
2022-08-18T07:45:41.131Z,22.02
2022-08-18T07:51:20.947Z,22.10
2022-08-18T07:53:58.114Z,22.10
2022-08-18T07:56:38.863Z,22.19
2022-08-18T07:59:17.894Z,22.15
2022-08-18T08:01:56.461Z,22.13
2022-08-18T08:04:37.508Z,22.16
2022-08-18T08:07:24.308Z,22.20
2022-08-18T08:10:11.982Z,22.19
2022-08-18T08:13:06.068Z,22.21
2022-08-18T08:15:50.325Z,22.19
2022-08-18T08:18:35.333Z,22.19
2022-08-18T08:21:12.858Z,22.23
2022-08-18T08:23:53.192Z,22.29
2022-08-18T08:26:43.199Z,22.29
2022-08-18T08:29:30.287Z,22.51
2022-08-18T08:32:05.258Z,22.64
2022-08-18T08:34:43.761Z,22.68
2022-08-18T08:37:21.938Z,22.80
2022-08-18T08:40:00.329Z,22.88
2022-08-18T08:42:42.278Z,22.99
2022-08-18T08:45:22.161Z,23.09
2022-08-18T08:48:08.510Z,23.16
2022-08-18T08:50:46.107Z,23.25
2022-08-18T08:53:24.489Z,23.39
2022-08-18T08:56:02.933Z,23.49
2022-08-18T08:58:42.255Z,23.60
2022-08-18T09:01:25.494Z,23.77
2022-08-18T09:04:07.254Z,23.84
2022-08-18T09:06:52.361Z,23.94
2022-08-18T09:09:56.521Z,24.13
2022-08-18T09:12:44.746Z,24.21
2022-08-18T09:15:26.918Z,24.36
2022-08-18T09:18:34.996Z,24.53
2022-08-18T09:21:22.292Z,24.63
2022-08-18T09:24:05.801Z,24.79
2022-08-18T09:26:50.152Z,24.97
2022-08-18T09:29:27.326Z,25.18
2022-08-18T09:32:36.397Z,25.19
2022-08-18T09:35:38.821Z,25.21
2022-08-18T09:38:34.101Z,25.22
2022-08-18T09:41:31.271Z,25.29
2022-08-18T09:47:06.284Z,25.34
2022-08-18T09:52:53.751Z,25.31
2022-08-18T09:55:59.311Z,25.40
2022-08-18T09:58:58.739Z,25.49
2022-08-18T10:01:42.340Z,25.48
2022-08-18T10:04:31.010Z,25.47
2022-08-18T10:07:17.576Z,25.49
2022-08-18T10:13:11.161Z,25.54
2022-08-18T10:15:53.576Z,25.55
2022-08-18T10:18:41.455Z,25.57
2022-08-18T10:24:35.315Z,25.64
2022-08-18T10:27:36.740Z,25.77
2022-08-18T10:31:06.257Z,25.80
2022-08-18T10:34:01.670Z,25.87
2022-08-18T10:36:40.170Z,25.98
2022-08-18T10:39:18.296Z,26.03
2022-08-18T10:42:03.696Z,26.13
2022-08-18T10:44:43.563Z,26.23
2022-08-18T10:47:25.667Z,26.34
2022-08-18T10:50:10.398Z,26.54
2022-08-18T10:53:40.420Z,26.63
2022-08-18T10:56:05.329Z,26.84
2022-08-18T10:58:59.467Z,26.92
2022-08-18T11:01:55.631Z,27.05
2022-08-18T11:04:33.246Z,27.12
2022-08-18T11:07:11.785Z,27.21
2022-08-18T11:12:56.238Z,27.40
2022-08-18T11:15:42.394Z,27.44
2022-08-18T11:18:30.204Z,27.61
2022-08-18T11:21:42.045Z,27.78
2022-08-18T11:24:21.004Z,27.91
2022-08-18T11:26:56.167Z,28.10
2022-08-18T11:29:32.649Z,28.28
2022-08-18T11:32:11.473Z,28.33
2022-08-18T11:34:53.128Z,28.46
2022-08-18T11:37:49.067Z,28.75
2022-08-18T11:43:39.116Z,28.97
2022-08-18T11:46:29.635Z,29.03
2022-08-18T11:49:17.353Z,29.07
2022-08-18T11:52:03.470Z,29.15
2022-08-18T11:54:50.943Z,29.28
2022-08-18T12:00:42.990Z,29.44
2022-08-18T12:03:24.041Z,29.50
2022-08-18T12:05:59.906Z,29.34
2022-08-18T12:11:33.742Z,29.27
2022-08-18T12:14:30.540Z,29.49
2022-08-18T12:17:05.349Z,29.53
2022-08-18T12:19:39.313Z,29.53
2022-08-18T12:22:17.501Z,29.59
2022-08-18T12:24:53.017Z,29.58
2022-08-18T12:27:31.887Z,29.76
2022-08-18T12:30:07.080Z,29.65
2022-08-18T12:32:55.740Z,29.64
2022-08-18T12:35:29.512Z,29.89
2022-08-18T12:38:12.336Z,30.09
2022-08-18T12:40:48.246Z,30.20
2022-08-18T12:43:21.483Z,30.37
2022-08-18T12:45:54.664Z,30.47
2022-08-18T12:48:29.915Z,30.49
2022-08-18T12:51:05.809Z,30.58
2022-08-18T12:53:58.286Z,30.58
2022-08-18T12:56:33.963Z,30.70
2022-08-18T12:59:10.796Z,30.89
2022-08-18T13:01:43.922Z,30.76
2022-08-18T13:04:18.607Z,31.28
2022-08-18T13:07:00.167Z,31.23
2022-08-18T13:09:52.664Z,30.88
2022-08-18T13:12:28.158Z,30.99
2022-08-18T13:15:01.662Z,31.00
2022-08-18T13:17:41.506Z,31.00
2022-08-18T13:20:18.111Z,31.12
2022-08-18T13:22:50.807Z,31.17
2022-08-18T13:25:32.495Z,31.32
2022-08-18T13:28:12.509Z,31.41
2022-08-18T13:30:46.680Z,31.50
2022-08-18T13:33:53.614Z,31.59
2022-08-18T13:36:12.005Z,31.61
2022-08-18T13:38:44.944Z,31.51
2022-08-18T13:41:18.086Z,31.61
2022-08-18T13:43:57.485Z,31.78
2022-08-18T13:46:31.920Z,31.69
2022-08-18T13:49:04.623Z,31.57
2022-08-18T13:51:37.494Z,31.67
2022-08-18T13:54:30.463Z,31.88
2022-08-18T13:57:05.266Z,31.91
2022-08-18T13:59:46.456Z,31.58
2022-08-18T14:02:19.669Z,31.75
2022-08-18T14:04:59.699Z,31.77
2022-08-18T14:07:32.789Z,31.93
2022-08-18T14:10:10.702Z,32.00
2022-08-18T14:12:47.139Z,32.18
2022-08-18T14:15:24.483Z,32.02
2022-08-18T14:17:57.196Z,31.93
2022-08-18T14:20:49.498Z,32.12
2022-08-18T14:23:51.438Z,32.25
2022-08-18T14:26:43.404Z,32.17
2022-08-18T14:29:16.932Z,32.24
2022-08-18T14:31:52.306Z,32.47
2022-08-18T14:34:26.916Z,32.50
2022-08-18T14:37:01.287Z,32.41
2022-08-18T14:39:34.534Z,32.37
2022-08-18T14:42:08.330Z,32.58
2022-08-18T14:44:45.968Z,32.70
2022-08-18T14:47:24.455Z,32.64
2022-08-18T14:49:58.141Z,32.66
2022-08-18T14:52:30.807Z,32.88
2022-08-18T14:55:04.134Z,33.07
2022-08-18T14:57:37.278Z,32.95
2022-08-18T15:00:14.320Z,33.16
2022-08-18T15:02:50.259Z,33.12
2022-08-18T15:05:25.035Z,33.15
2022-08-18T15:07:58.792Z,33.31
2022-08-18T15:10:33.117Z,33.22
2022-08-18T15:13:05.917Z,33.08
2022-08-18T15:15:50.615Z,33.25
2022-08-18T15:18:26.579Z,33.04
2022-08-18T15:21:34.253Z,33.18
2022-08-18T15:24:26.697Z,33.23
2022-08-18T15:27:05.940Z,33.32
2022-08-18T15:29:41.567Z,33.33
2022-08-18T15:32:17.764Z,33.37
2022-08-18T15:34:51.943Z,33.17
2022-08-18T15:37:24.793Z,33.12
2022-08-18T15:40:05.216Z,33.07
2022-08-18T15:42:38.383Z,32.79
2022-08-18T15:45:15.824Z,32.88
2022-08-18T15:47:48.985Z,33.07
2022-08-18T15:50:26.122Z,33.30
2022-08-18T15:53:03.772Z,32.99
2022-08-18T15:55:41.721Z,32.93
2022-08-18T15:58:22.090Z,32.87
2022-08-18T16:00:55.170Z,33.07
2022-08-18T16:03:28.847Z,33.00
2022-08-18T16:06:03.344Z,33.02
2022-08-18T16:08:36.062Z,33.06
2022-08-18T16:11:10.538Z,33.14
2022-08-18T16:13:52.692Z,32.95
2022-08-18T16:16:29.216Z,32.72
2022-08-18T16:19:09.066Z,32.67
2022-08-18T16:21:43.186Z,32.63
2022-08-18T16:24:18.241Z,32.67
2022-08-18T16:26:51.947Z,32.37
2022-08-18T16:29:25.074Z,32.48
2022-08-18T16:31:57.752Z,32.48
2022-08-18T16:34:31.034Z,32.48
2022-08-18T16:37:05.228Z,32.37
2022-08-18T16:39:38.119Z,32.36
2022-08-18T16:42:10.834Z,32.32
2022-08-18T16:44:43.783Z,32.07
2022-08-18T16:47:18.485Z,31.85
2022-08-18T16:49:51.242Z,31.73
2022-08-18T16:52:25.259Z,31.66
2022-08-18T16:54:58.256Z,31.51
2022-08-18T16:57:53.743Z,31.41
2022-08-18T17:00:54.553Z,31.28
2022-08-18T17:03:45.744Z,31.15
2022-08-18T17:06:20.871Z,31.03
2022-08-18T17:08:55.658Z,30.97
2022-08-18T17:11:29.066Z,30.85
2022-08-18T17:14:02.271Z,30.80
2022-08-18T17:16:36.289Z,30.76
2022-08-18T17:19:09.528Z,30.68
2022-08-18T17:21:43.117Z,30.66
2022-08-18T17:24:19.778Z,30.52
2022-08-18T17:27:19.217Z,30.46
2022-08-18T17:30:03.825Z,30.40
2022-08-18T17:32:41.738Z,30.24
2022-08-18T17:35:28.655Z,30.17
2022-08-18T17:38:06.724Z,30.12
2022-08-18T17:40:45.161Z,30.05
2022-08-18T17:43:21.167Z,30.02
2022-08-18T17:45:57.686Z,29.92
2022-08-18T17:48:35.773Z,29.84
2022-08-18T17:51:26.884Z,29.70
2022-08-18T17:54:01.381Z,29.68
2022-08-18T17:56:43.460Z,29.64
2022-08-18T17:59:45.485Z,29.56
2022-08-18T18:02:28.719Z,29.48
2022-08-18T18:05:07.508Z,29.43
2022-08-18T18:07:54.728Z,29.37
2022-08-18T18:10:47.026Z,29.28
2022-08-18T18:13:32.695Z,29.21
2022-08-18T18:16:24.532Z,29.13
2022-08-18T18:19:01.845Z,29.04
2022-08-18T18:22:00.771Z,28.99
2022-08-18T18:24:33.145Z,28.93
2022-08-18T18:27:32.477Z,28.79
2022-08-18T18:30:27.899Z,28.72
2022-08-18T18:33:05.770Z,28.64
2022-08-18T18:35:54.939Z,28.59
2022-08-18T18:38:30.701Z,28.56
2022-08-18T18:41:07.781Z,28.43
2022-08-18T18:43:43.570Z,28.36
2022-08-18T18:46:32.096Z,28.19
2022-08-18T18:49:16.535Z,28.17
2022-08-18T18:52:02.215Z,27.99
2022-08-18T18:54:50.195Z,28.00
2022-08-18T18:57:34.038Z,27.98
2022-08-18T19:00:19.961Z,27.96
2022-08-18T19:03:04.486Z,27.93
2022-08-18T19:05:46.515Z,27.85
2022-08-18T19:08:31.116Z,27.68
2022-08-18T19:11:15.826Z,27.64
2022-08-18T19:13:55.283Z,27.56
2022-08-18T19:16:31.897Z,27.46
2022-08-18T19:19:37.454Z,27.38
2022-08-18T19:22:15.948Z,27.25
2022-08-18T19:24:56.866Z,27.24
2022-08-18T19:27:36.277Z,27.19
2022-08-18T19:30:14.279Z,27.14
2022-08-18T19:32:50.539Z,27.12
2022-08-18T19:35:35.375Z,27.04
2022-08-18T19:38:21.251Z,26.94
2022-08-18T19:41:00.387Z,26.87
2022-08-18T19:43:38.791Z,26.80
2022-08-18T19:46:19.745Z,26.74
2022-08-18T19:49:00.753Z,26.67
2022-08-18T19:51:37.725Z,26.66
2022-08-18T19:54:36.785Z,26.57
2022-08-18T19:57:23.647Z,26.51
2022-08-18T20:00:14.595Z,26.44
2022-08-18T20:03:07.925Z,26.45
2022-08-18T20:05:45.620Z,26.42
2022-08-18T20:08:39.303Z,26.43
2022-08-18T20:11:41.968Z,26.41
2022-08-18T20:14:18.889Z,26.29
2022-08-18T20:17:16.822Z,26.23
2022-08-18T20:20:15.701Z,26.19
2022-08-18T20:22:55.169Z,26.17
2022-08-18T20:25:46.330Z,26.10
2022-08-18T20:28:33.457Z,26.01
2022-08-18T20:31:17.604Z,25.92
2022-08-18T20:34:14.195Z,25.85
2022-08-18T20:36:48.907Z,25.85
2022-08-18T20:39:36.188Z,25.81
2022-08-18T20:42:46.870Z,25.81
2022-08-18T20:45:34.747Z,25.74
2022-08-18T20:48:19.121Z,25.76
2022-08-18T20:51:03.245Z,25.72
2022-08-18T20:53:52.326Z,25.75
2022-08-18T20:56:43.117Z,25.60
2022-08-18T20:59:21.347Z,25.48
2022-08-18T21:01:57.610Z,25.42
2022-08-18T21:04:48.264Z,25.37
2022-08-18T21:07:36.253Z,25.34
2022-08-18T21:10:18.908Z,25.27
2022-08-18T21:12:55.280Z,25.22
2022-08-18T21:15:31.712Z,25.22
2022-08-18T21:18:07.309Z,25.22
2022-08-18T21:20:40.490Z,25.16
2022-08-18T21:23:15.370Z,25.13
2022-08-18T21:25:52.655Z,25.11
2022-08-18T21:28:28.875Z,25.10
2022-08-18T21:31:42.965Z,24.98
2022-08-18T21:34:30.053Z,24.91
2022-08-18T21:37:08.377Z,24.86
2022-08-18T21:39:53.107Z,24.82
2022-08-18T21:42:29.408Z,24.75
2022-08-18T21:45:02.221Z,24.71
2022-08-18T21:47:36.402Z,24.65
2022-08-18T21:50:12.473Z,24.62
2022-08-18T21:52:52.395Z,24.55
2022-08-18T21:55:31.625Z,24.49
2022-08-18T21:58:17.677Z,24.46
2022-08-18T22:01:11.944Z,24.45
2022-08-18T22:03:54.984Z,24.41
2022-08-18T22:06:40.821Z,24.35
2022-08-18T22:09:37.402Z,24.34
2022-08-18T22:12:42.686Z,24.30
2022-08-18T22:15:19.260Z,24.27
2022-08-18T22:17:56.376Z,24.23
2022-08-18T22:20:46.187Z,24.20
2022-08-18T22:23:43.558Z,24.15
2022-08-18T22:26:22.264Z,24.08
2022-08-18T22:28:59.539Z,24.04
2022-08-18T22:31:34.355Z,24.04
2022-08-18T22:34:09.151Z,24.02
2022-08-18T22:36:47.134Z,23.95
2022-08-18T22:39:25.712Z,23.94
2022-08-18T22:41:59.685Z,23.94
2022-08-18T22:44:33.029Z,23.92
2022-08-18T22:47:06.433Z,23.90
2022-08-18T22:49:39.948Z,23.85
2022-08-18T22:52:19.971Z,23.83
2022-08-18T22:54:53.584Z,23.82
2022-08-18T22:57:26.685Z,23.79
2022-08-18T22:59:59.806Z,23.77
2022-08-18T23:02:33.072Z,23.74
2022-08-18T23:05:07.061Z,23.70
2022-08-18T23:07:41.307Z,23.68
2022-08-18T23:10:16.484Z,23.66
2022-08-18T23:12:50.149Z,23.62
2022-08-18T23:15:38.488Z,23.60
2022-08-18T23:18:11.427Z,23.54
2022-08-18T23:20:45.318Z,23.46
2022-08-18T23:23:21.823Z,23.49
2022-08-18T23:28:28.082Z,23.43
2022-08-18T23:31:01.265Z,23.42
2022-08-18T23:33:34.556Z,23.39
2022-08-18T23:36:07.668Z,23.38
2022-08-18T23:38:42.488Z,23.36
2022-08-18T23:41:16.365Z,23.34
2022-08-18T23:43:49.485Z,23.32
2022-08-18T23:46:28.529Z,23.34
2022-08-18T23:49:03.852Z,23.31
2022-08-18T23:51:39.098Z,23.29
2022-08-18T23:54:15.572Z,23.25
2022-08-18T23:56:49.034Z,23.21
2022-08-18T23:59:24.085Z,23.22
